LFPO Airport Information

Runway Information
Runway 02 Length 7874 ft width 197 ft
Elevation 287 ft Threshold 0 ft Heading 18
Runway 20 Length 7874 ft Width 197 ft
Elevation 287 ft Threshold 0 ft Heading 198
Runway 06 Length 11975 ft width 148 ft
Elevation 283 ft Threshold 984 ft Heading 62
Runway 24 Length 11975 ft Width 148 ft
Elevation 284 ft Threshold 0 ft Heading 242
Runway 08 Length 10892 ft width 148 ft
Elevation 277 ft Threshold 0 ft Heading 74
Runway 26 Length 10892 ft Width 148 ft
Elevation 287 ft Threshold 1427 ft Heading 254
Airport Frequencies
Type APP Name APP Frequency 123.875 MHZ
Type ATIS Name ATIS Frequency 131.35 MHZ
Type DEP Name DEP Frequency 127.75 MHZ
Type GND Name GND Frequency 121.7 MHZ
Type PFLT Name PREFLIGHT Frequency 121.05 MHZ
Type TWR Name TWR Frequency 118.7 MHZ
Airport Navaids
Type VOR-DME Name Orly Frequency 111200 KHZ
Airport Weather Information & NOTAM
ADDS - METARS form results

(2022 UTC 19 September 2018)
Data provider http://aviationweather.gov/metar/data/
 
METAR text: LFPO 192000Z 19003KT CAVOK 18/13 Q1020 NOSIG
Conditions at: LFPO (PARIS/ORLY , FR) observed 2000 UTC 19 September 2018
Temperature: 18.0°C (64°F)
Dewpoint: 13.0°C (55°F) [RH = 73%]
Pressure (altimeter): 30.12 inches Hg (1020.0 mb)
Winds: from the S (190 degrees) at 3 MPH (3 knots; 1.5 m/s)
Visibility: 6 or more miles (10+ km)
Ceiling: ceiling and visibility are OK
Clouds: unknown
Weather: no significant weather observed at this time

METAR text: LFPO 191930Z 17002KT CAVOK 18/13 Q1020 NOSIG
Conditions at: LFPO (PARIS/ORLY , FR) observed 1930 UTC 19 September 2018
Temperature: 18.0°C (64°F)
Dewpoint: 13.0°C (55°F) [RH = 73%]
Pressure (altimeter): 30.12 inches Hg (1020.0 mb)
Winds: from the S (170 degrees) at 2 MPH (2 knots; 1.0 m/s)
Visibility: 6 or more miles (10+ km)
Ceiling: ceiling and visibility are OK
Clouds: unknown
Weather: no significant weather observed at this time

Forecast for: LFPO (PARIS/ORLY , FR)
Text: TAF LFPO 191700Z 1918/2024 23010KT CAVOK
Forecast period: 1800 UTC 19 September 2018 to 0000 UTC 21 September 2018
Forecast type: FROM: standard forecast or significant change
Winds: from the SW (230 degrees) at 12 MPH (10 knots; 5.1 m/s)
Visibility: 6 or more miles 10+ km)
Ceiling: unknown
Clouds: missing
Weather: NSW  (no significant weather)
Text: TEMPO 2006/2009 BKN006
Forecast period: 0600 to 0900 UTC 20 September 2018
Forecast type: TEMPORARY: The following changes expected for less than half the time period
Visibility: missing
Ceiling: 600 feet AGL
Clouds: broken clouds at 600 feet AGL
Weather: no significant weather forecast for this period